logo tempoitalia

Diretta Meteo Douglas Converse, Stati Uniti (USA)domenica 30 agosto ore 23:53

Mappa
Sereno 19 °C Sereno 24 Ore: T.min 16 T.max 28
Ponente Ovest Km/h 7.4 Punto di rugiada: 9 °C Umidità: 52% Visibilità: 10 Km
Il sole sorge alle: 06:24 Il sole tramonta alle: 19:39
30 Agosto 2026 23:53 tempo osservato: Sereno Sereno 19 52 1017 vento: Nord O 7.4
30 Agosto 2026 22:53 tempo osservato: Sereno Sereno 16 55 1017 vento: Nord E 13
30 Agosto 2026 21:53 tempo osservato: Sereno Sereno 20 42 1017 vento: Nord SO 13
30 Agosto 2026 20:53 tempo osservato: Sereno Sereno 20 42 1016 vento: Nord SO 16.7
30 Agosto 2026 19:53 tempo osservato: Sereno Sereno 21 37 1016 vento: Nord O 14.8
30 Agosto 2026 18:53 tempo osservato: Poco Nuvoloso Poco Nuvoloso 23 35 1015 vento: Nord O 14.8
30 Agosto 2026 17:53 tempo osservato: Sereno Sereno 26 25 1015 vento: Nord O/NO 25.9
30 Agosto 2026 16:53 tempo osservato: Sereno Sereno 27 26 1015 vento: Nord O 24
30 Agosto 2026 15:53 tempo osservato: Sereno Sereno 24 33 1016 vento: Nord O 31.5
30 Agosto 2026 14:53 tempo osservato: Sereno Sereno 26 29 1015 vento: Nord O 37
30 Agosto 2026 13:53 tempo osservato: Sereno Sereno 27 28 1015 vento: Nord O 33.3
30 Agosto 2026 12:53 tempo osservato: Sereno Sereno 27 28 1015 vento: Nord O 33.3
30 Agosto 2026 11:53 tempo osservato: Sereno Sereno 28 24 1015 vento: Nord O/NO 33.3
30 Agosto 2026 10:53 tempo osservato: Sereno Sereno 26 31 1015 vento: Nord O 29.6
30 Agosto 2026 09:53 tempo osservato: Sereno Sereno 23 38 1015 vento: Nord O 31.5
30 Agosto 2026 08:53 tempo osservato: Sereno Sereno 20 52 1016 vento: Nord O 18.5
30 Agosto 2026 07:53 tempo osservato: Sereno Sereno 19 59 1015 vento: Nord NO 13
30 Agosto 2026 06:53 tempo osservato: Sereno Sereno 20 49 1015 vento: Nord N/NO 11.1
30 Agosto 2026 05:53 tempo osservato: Sereno Sereno 19 55 1015 vento: Nord O/NO 20.3
30 Agosto 2026 04:53 tempo osservato: Sereno Sereno 19 52 1015 vento: Nord N/NO 11.1
30 Agosto 2026 03:53 tempo osservato: Sereno Sereno 19 52 1015 vento: Nord N 5.5
30 Agosto 2026 02:53 tempo osservato: Sereno Sereno 18 55 1014 vento: Nord O/NO 11.1
30 Agosto 2026 01:53 tempo osservato: Sereno Sereno 19 48 1015 vento: Nord O 11.1
30 Agosto 2026 00:53 tempo osservato: Sereno Sereno 20 45 1015 vento: Nord O 22.2